sensor_id;sensor_type;location;lat;lon;timestamp;pressure;altitude;pressure_sealevel;temperature;humidity
47556;BME280;33291;46.222;26.460;2024-03-23T00:53:14;96409.97;;;1.90;96.07
47556;BME280;33291;46.222;26.460;2024-03-23T00:55:43;96407.31;;;1.92;95.99
47556;BME280;33291;46.222;26.460;2024-03-23T00:58:09;96412.63;;;1.89;96.11
47556;BME280;33291;46.222;26.460;2024-03-23T01:00:34;96419.50;;;1.88;95.84
47556;BME280;33291;46.222;26.460;2024-03-23T01:03:01;96421.41;;;1.85;95.70
47556;BME280;33291;46.222;26.460;2024-03-23T01:05:26;96417.25;;;1.82;95.82
47556;BME280;33291;46.222;26.460;2024-03-23T01:07:52;96419.28;;;1.77;95.83
47556;BME280;33291;46.222;26.460;2024-03-23T01:10:18;96407.50;;;1.73;96.30
47556;BME280;33291;46.222;26.460;2024-03-23T01:12:43;96394.28;;;1.65;96.57
47556;BME280;33291;46.222;26.460;2024-03-23T01:15:09;96401.91;;;1.66;96.79
47556;BME280;33291;46.222;26.460;2024-03-23T01:17:35;96388.78;;;1.56;96.93
47556;BME280;33291;46.222;26.460;2024-03-23T01:20:01;96408.78;;;1.66;97.56
47556;BME280;33291;46.222;26.460;2024-03-23T01:22:26;96402.72;;;1.67;97.69
47556;BME280;33291;46.222;26.460;2024-03-23T01:24:52;96401.81;;;1.68;97.09
47556;BME280;33291;46.222;26.460;2024-03-23T01:27:18;96402.16;;;1.62;97.18
47556;BME280;33291;46.222;26.460;2024-03-23T01:29:43;96392.16;;;1.57;97.36
47556;BME280;33291;46.222;26.460;2024-03-23T01:32:09;96404.09;;;1.58;97.41
47556;BME280;33291;46.222;26.460;2024-03-23T01:34:35;96398.44;;;1.51;97.46
47556;BME280;33291;46.222;26.460;2024-03-23T01:37:00;96397.63;;;1.51;97.93
47556;BME280;33291;46.222;26.460;2024-03-23T01:39:26;96393.31;;;1.51;98.02
47556;BME280;33291;46.222;26.460;2024-03-23T01:41:52;96393.22;;;1.53;97.96
47556;BME280;33291;46.222;26.460;2024-03-23T01:44:17;96381.38;;;1.50;98.00
47556;BME280;33291;46.222;26.460;2024-03-23T01:46:43;96358.88;;;1.39;97.21
47556;BME280;33291;46.222;26.460;2024-03-23T01:49:10;96388.81;;;1.55;97.64
47556;BME280;33291;46.222;26.460;2024-03-23T01:51:36;96377.00;;;1.52;97.36
47556;BME280;33291;46.222;26.460;2024-03-23T01:54:03;96387.19;;;1.54;97.31
47556;BME280;33291;46.222;26.460;2024-03-23T01:56:30;96374.97;;;1.43;97.25
47556;BME280;33291;46.222;26.460;2024-03-23T01:58:56;96379.00;;;1.47;97.50
47556;BME280;33291;46.222;26.460;2024-03-23T02:01:22;96364.94;;;1.38;97.97
47556;BME280;33291;46.222;26.460;2024-03-23T02:03:47;96367.53;;;1.38;97.97
47556;BME280;33291;46.222;26.460;2024-03-23T02:06:13;96373.28;;;1.42;97.89
47556;BME280;33291;46.222;26.460;2024-03-23T02:08:39;96368.16;;;1.42;97.80
47556;BME280;33291;46.222;26.460;2024-03-23T02:11:05;96369.47;;;1.49;97.77
47556;BME280;33291;46.222;26.460;2024-03-23T02:13:30;96370.38;;;1.48;97.54
47556;BME280;33291;46.222;26.460;2024-03-23T02:15:57;96378.34;;;1.44;97.72
47556;BME280;33291;46.222;26.460;2024-03-23T02:18:23;96369.66;;;1.46;97.65
47556;BME280;33291;46.222;26.460;2024-03-23T02:20:49;96368.47;;;1.52;97.83
47556;BME280;33291;46.222;26.460;2024-03-23T02:23:15;96378.41;;;1.58;97.52
47556;BME280;33291;46.222;26.460;2024-03-23T02:25:41;96370.63;;;1.59;97.09
47556;BME280;33291;46.222;26.460;2024-03-23T02:28:08;96368.97;;;1.58;96.72
47556;BME280;33291;46.222;26.460;2024-03-23T02:30:33;96371.53;;;1.58;96.50
47556;BME280;33291;46.222;26.460;2024-03-23T02:32:59;96369.94;;;1.56;96.21
47556;BME280;33291;46.222;26.460;2024-03-23T02:35:25;96374.63;;;1.49;96.10
47556;BME280;33291;46.222;26.460;2024-03-23T02:37:50;96370.72;;;1.42;96.44
47556;BME280;33291;46.222;26.460;2024-03-23T02:40:17;96369.06;;;1.41;96.54
47556;BME280;33291;46.222;26.460;2024-03-23T02:42:42;96362.66;;;1.34;96.71
47556;BME280;33291;46.222;26.460;2024-03-23T02:45:08;96358.66;;;1.28;96.79
47556;BME280;33291;46.222;26.460;2024-03-23T02:47:34;96368.19;;;1.26;97.05
47556;BME280;33291;46.222;26.460;2024-03-23T02:50:00;96354.31;;;1.14;97.53
47556;BME280;33291;46.222;26.460;2024-03-23T02:52:25;96357.59;;;1.16;97.95
47556;BME280;33291;46.222;26.460;2024-03-23T02:54:51;96363.25;;;1.07;98.42
47556;BME280;33291;46.222;26.460;2024-03-23T02:57:17;96358.19;;;1.05;98.96
47556;BME280;33291;46.222;26.460;2024-03-23T02:59:42;96359.94;;;1.05;98.79
47556;BME280;33291;46.222;26.460;2024-03-23T03:02:08;96357.53;;;1.02;98.72
47556;BME280;33291;46.222;26.460;2024-03-23T03:04:34;96353.72;;;1.09;98.78
47556;BME280;33291;46.222;26.460;2024-03-23T03:07:00;96353.16;;;1.04;98.46
47556;BME280;33291;46.222;26.460;2024-03-23T03:09:25;96358.28;;;1.04;98.78
47556;BME280;33291;46.222;26.460;2024-03-23T03:11:51;96350.91;;;0.98;98.79
47556;BME280;33291;46.222;26.460;2024-03-23T03:14:17;96348.34;;;0.98;99.18
47556;BME280;33291;46.222;26.460;2024-03-23T03:16:42;96348.53;;;0.95;99.31
47556;BME280;33291;46.222;26.460;2024-03-23T03:19:08;96345.06;;;0.96;99.09
47556;BME280;33291;46.222;26.460;2024-03-23T03:21:35;96349.25;;;0.97;98.97
47556;BME280;33291;46.222;26.460;2024-03-23T03:24:01;96316.34;;;0.73;99.17
47556;BME280;33291;46.222;26.460;2024-03-23T03:26:27;96339.41;;;0.89;99.26
47556;BME280;33291;46.222;26.460;2024-03-23T03:28:52;96342.06;;;0.87;99.39
47556;BME280;33291;46.222;26.460;2024-03-23T03:31:18;96337.09;;;0.84;99.40
47556;BME280;33291;46.222;26.460;2024-03-23T03:33:44;96324.59;;;0.78;99.53
47556;BME280;33291;46.222;26.460;2024-03-23T03:36:10;96339.50;;;0.87;99.57
47556;BME280;33291;46.222;26.460;2024-03-23T03:38:36;96331.16;;;0.84;99.64
47556;BME280;33291;46.222;26.460;2024-03-23T03:41:02;96338.75;;;0.85;99.59
47556;BME280;33291;46.222;26.460;2024-03-23T03:43:28;96344.06;;;0.82;99.59
47556;BME280;33291;46.222;26.460;2024-03-23T03:45:56;96337.25;;;0.81;99.77
47556;BME280;33291;46.222;26.460;2024-03-23T03:48:22;96342.56;;;0.78;99.89
47556;BME280;33291;46.222;26.460;2024-03-23T03:50:47;96338.25;;;0.79;99.98
47556;BME280;33291;46.222;26.460;2024-03-23T03:53:13;96338.00;;;0.83;100.00
47556;BME280;33291;46.222;26.460;2024-03-23T03:55:39;96336.13;;;0.87;99.74
47556;BME280;33291;46.222;26.460;2024-03-23T03:58:05;96334.19;;;0.91;99.70
47556;BME280;33291;46.222;26.460;2024-03-23T04:00:31;96333.94;;;0.95;99.91
47556;BME280;33291;46.222;26.460;2024-03-23T04:02:57;96331.13;;;1.00;99.68
47556;BME280;33291;46.222;26.460;2024-03-23T04:05:23;96320.47;;;0.92;99.24
47556;BME280;33291;46.222;26.460;2024-03-23T04:07:48;96317.75;;;0.95;99.58
47556;BME280;33291;46.222;26.460;2024-03-23T04:10:14;96319.41;;;0.96;99.34
47556;BME280;33291;46.222;26.460;2024-03-23T04:12:43;96318.06;;;0.88;99.64
47556;BME280;33291;46.222;26.460;2024-03-23T04:15:10;96319.25;;;0.99;99.85
47556;BME280;33291;46.222;26.460;2024-03-23T04:17:36;96315.41;;;1.06;99.70
47556;BME280;33291;46.222;26.460;2024-03-23T04:20:02;96312.09;;;1.04;99.39
47556;BME280;33291;46.222;26.460;2024-03-23T04:22:30;96316.34;;;1.05;99.64
47556;BME280;33291;46.222;26.460;2024-03-23T04:24:56;96302.09;;;0.99;99.66
47556;BME280;33291;46.222;26.460;2024-03-23T04:27:23;96311.13;;;1.06;99.42
47556;BME280;33291;46.222;26.460;2024-03-23T04:29:50;96307.69;;;1.06;99.68
47556;BME280;33291;46.222;26.460;2024-03-23T04:32:16;96305.13;;;1.06;99.07
47556;BME280;33291;46.222;26.460;2024-03-23T04:34:42;96304.16;;;1.09;99.42
47556;BME280;33291;46.222;26.460;2024-03-23T04:37:09;96299.84;;;1.09;99.27
47556;BME280;33291;46.222;26.460;2024-03-23T04:39:36;96299.03;;;1.09;99.26
47556;BME280;33291;46.222;26.460;2024-03-23T04:42:02;96265.13;;;0.87;99.60
47556;BME280;33291;46.222;26.460;2024-03-23T04:44:28;96287.19;;;1.06;99.66
47556;BME280;33291;46.222;26.460;2024-03-23T04:46:54;96293.97;;;1.07;99.55
47556;BME280;33291;46.222;26.460;2024-03-23T04:49:19;96301.59;;;1.09;99.97
47556;BME280;33291;46.222;26.460;2024-03-23T04:51:45;96288.94;;;1.05;100.00
47556;BME280;33291;46.222;26.460;2024-03-23T04:54:14;96293.97;;;1.07;100.00
47556;BME280;33291;46.222;26.460;2024-03-23T04:56:40;96288.59;;;1.12;100.00
47556;BME280;33291;46.222;26.460;2024-03-23T04:59:06;96281.34;;;1.18;100.00
47556;BME280;33291;46.222;26.460;2024-03-23T05:01:32;96284.06;;;1.31;99.92
47556;BME280;33291;46.222;26.460;2024-03-23T05:03:58;96276.28;;;1.33;99.59
47556;BME280;33291;46.222;26.460;2024-03-23T05:06:24;96275.03;;;1.40;99.52
47556;BME280;33291;46.222;26.460;2024-03-23T05:08:51;96287.34;;;1.49;99.25
47556;BME280;33291;46.222;26.460;2024-03-23T05:11:17;96273.75;;;1.47;99.19
47556;BME280;33291;46.222;26.460;2024-03-23T05:13:43;96280.94;;;1.56;99.08
47556;BME280;33291;46.222;26.460;2024-03-23T05:16:09;96281.22;;;1.66;98.91
47556;BME280;33291;46.222;26.460;2024-03-23T05:18:35;96276.63;;;1.71;98.35
47556;BME280;33291;46.222;26.460;2024-03-23T05:21:01;96281.91;;;1.84;97.92
47556;BME280;33291;46.222;26.460;2024-03-23T05:23:28;96274.53;;;1.92;96.89
47556;BME280;33291;46.222;26.460;2024-03-23T05:25:54;96267.41;;;1.98;96.52
47556;BME280;33291;46.222;26.460;2024-03-23T05:28:23;96261.25;;;2.00;96.01
47556;BME280;33291;46.222;26.460;2024-03-23T05:30:55;96269.78;;;2.15;95.97
47556;BME280;33291;46.222;26.460;2024-03-23T05:33:23;96265.94;;;2.22;95.20
47556;BME280;33291;46.222;26.460;2024-03-23T05:35:59;96255.84;;;2.19;94.83
47556;BME280;33291;46.222;26.460;2024-03-23T05:38:25;96262.06;;;2.29;95.45
47556;BME280;33291;46.222;26.460;2024-03-23T05:40:58;96259.75;;;2.39;95.11
47556;BME280;33291;46.222;26.460;2024-03-23T05:43:24;96257.53;;;2.47;95.07
47556;BME280;33291;46.222;26.460;2024-03-23T05:45:57;96255.41;;;2.54;93.95
47556;BME280;33291;46.222;26.460;2024-03-23T05:48:23;96260.78;;;2.64;93.34
47556;BME280;33291;46.222;26.460;2024-03-23T05:50:49;96257.66;;;2.73;93.55
47556;BME280;33291;46.222;26.460;2024-03-23T05:53:15;96258.28;;;2.77;94.75
47556;BME280;33291;46.222;26.460;2024-03-23T05:55:41;96262.34;;;2.81;93.61
47556;BME280;33291;46.222;26.460;2024-03-23T05:58:07;96251.47;;;2.90;94.16
47556;BME280;33291;46.222;26.460;2024-03-23T06:00:33;96254.78;;;3.05;93.39
47556;BME280;33291;46.222;26.460;2024-03-23T06:02:59;96248.22;;;3.14;92.26
47556;BME280;33291;46.222;26.460;2024-03-23T06:05:24;96255.88;;;3.28;91.22
47556;BME280;33291;46.222;26.460;2024-03-23T06:07:50;96243.34;;;3.36;91.83
47556;BME280;33291;46.222;26.460;2024-03-23T06:10:16;96253.88;;;3.46;90.86
47556;BME280;33291;46.222;26.460;2024-03-23T06:12:42;96245.84;;;3.51;91.06
47556;BME280;33291;46.222;26.460;2024-03-23T06:15:08;96253.25;;;3.68;91.50
47556;BME280;33291;46.222;26.460;2024-03-23T06:17:36;96249.94;;;3.79;91.30
47556;BME280;33291;46.222;26.460;2024-03-23T06:20:02;96251.09;;;3.88;91.62
47556;BME280;33291;46.222;26.460;2024-03-23T06:22:28;96249.13;;;3.91;91.51
47556;BME280;33291;46.222;26.460;2024-03-23T06:24:54;96245.22;;;3.99;91.85
47556;BME280;33291;46.222;26.460;2024-03-23T06:27:19;96249.53;;;4.11;91.61
47556;BME280;33291;46.222;26.460;2024-03-23T06:29:45;96239.00;;;4.27;91.25
47556;BME280;33291;46.222;26.460;2024-03-23T06:32:11;96225.94;;;4.41;90.67
47556;BME280;33291;46.222;26.460;2024-03-23T06:34:36;96225.09;;;4.54;89.74
47556;BME280;33291;46.222;26.460;2024-03-23T06:37:02;96230.69;;;4.72;89.69
47556;BME280;33291;46.222;26.460;2024-03-23T06:39:28;96216.00;;;4.85;89.02
47556;BME280;33291;46.222;26.460;2024-03-23T06:41:55;96213.38;;;4.98;87.52
47556;BME280;33291;46.222;26.460;2024-03-23T06:44:20;96208.13;;;5.11;87.03
47556;BME280;33291;46.222;26.460;2024-03-23T06:46:46;96209.25;;;5.31;86.07
47556;BME280;33291;46.222;26.460;2024-03-23T06:49:13;96213.50;;;5.43;85.25
47556;BME280;33291;46.222;26.460;2024-03-23T06:51:38;96212.25;;;5.60;83.58
47556;BME280;33291;46.222;26.460;2024-03-23T06:54:05;96207.44;;;5.78;84.77
47556;BME280;33291;46.222;26.460;2024-03-23T06:56:31;96202.53;;;5.98;83.98
47556;BME280;33291;46.222;26.460;2024-03-23T06:58:57;96194.06;;;6.30;84.33
47556;BME280;33291;46.222;26.460;2024-03-23T07:01:23;96199.69;;;6.57;83.32
47556;BME280;33291;46.222;26.460;2024-03-23T07:03:48;96203.63;;;6.73;81.74
47556;BME280;33291;46.222;26.460;2024-03-23T07:06:14;96196.41;;;6.88;81.50
47556;BME280;33291;46.222;26.460;2024-03-23T07:08:40;96187.84;;;7.08;80.67
47556;BME280;33291;46.222;26.460;2024-03-23T07:11:06;96191.97;;;7.32;79.06
47556;BME280;33291;46.222;26.460;2024-03-23T07:13:31;96175.03;;;7.49;77.33
47556;BME280;33291;46.222;26.460;2024-03-23T07:15:58;96184.59;;;7.79;75.65
47556;BME280;33291;46.222;26.460;2024-03-23T07:18:25;96176.59;;;7.92;73.19
47556;BME280;33291;46.222;26.460;2024-03-23T07:20:54;96173.13;;;8.13;72.19
47556;BME280;33291;46.222;26.460;2024-03-23T07:23:22;96179.94;;;8.45;72.89
47556;BME280;33291;46.222;26.460;2024-03-23T07:26:04;96179.84;;;8.76;68.09
47556;BME280;33291;46.222;26.460;2024-03-23T07:28:33;96182.34;;;9.06;69.04
47556;BME280;33291;46.222;26.460;2024-03-23T07:31:08;96174.25;;;9.19;68.07
47556;BME280;33291;46.222;26.460;2024-03-23T07:33:36;96173.84;;;9.34;64.45
47556;BME280;33291;46.222;26.460;2024-03-23T07:36:02;96167.09;;;9.51;62.75
47556;BME280;33291;46.222;26.460;2024-03-23T07:38:29;96163.19;;;9.74;59.68
47556;BME280;33291;46.222;26.460;2024-03-23T07:41:08;96157.63;;;10.07;61.88
47556;BME280;33291;46.222;26.460;2024-03-23T07:43:35;96162.69;;;10.36;57.94
47556;BME280;33291;46.222;26.460;2024-03-23T07:46:01;96157.44;;;10.64;53.54
47556;BME280;33291;46.222;26.460;2024-03-23T07:48:29;96161.94;;;10.90;53.09
47556;BME280;33291;46.222;26.460;2024-03-23T07:51:16;96147.09;;;11.08;50.87
47556;BME280;33291;46.222;26.460;2024-03-23T07:53:44;96164.94;;;11.39;51.01
47556;BME280;33291;46.222;26.460;2024-03-23T07:56:11;96139.03;;;11.64;48.86
47556;BME280;33291;46.222;26.460;2024-03-23T07:58:38;96158.03;;;11.82;48.00
47556;BME280;33291;46.222;26.460;2024-03-23T08:01:12;96163.38;;;11.99;46.88
47556;BME280;33291;46.222;26.460;2024-03-23T08:03:41;96163.56;;;12.05;46.07
47556;BME280;33291;46.222;26.460;2024-03-23T08:06:12;96161.50;;;12.17;45.74
47556;BME280;33291;46.222;26.460;2024-03-23T08:08:39;96148.28;;;12.19;45.65
47556;BME280;33291;46.222;26.460;2024-03-23T08:11:05;96141.78;;;12.31;44.63
47556;BME280;33291;46.222;26.460;2024-03-23T08:13:32;96146.25;;;12.47;44.05
47556;BME280;33291;46.222;26.460;2024-03-23T08:16:02;96146.44;;;12.54;43.46
47556;BME280;33291;46.222;26.460;2024-03-23T08:18:29;96149.06;;;12.62;44.49
47556;BME280;33291;46.222;26.460;2024-03-23T08:20:58;96139.59;;;12.69;43.92
47556;BME280;33291;46.222;26.460;2024-03-23T08:23:25;96142.75;;;12.89;43.11
47556;BME280;33291;46.222;26.460;2024-03-23T08:25:52;96133.28;;;13.05;43.24
47556;BME280;33291;46.222;26.460;2024-03-23T08:28:17;96127.09;;;13.06;42.95
47556;BME280;33291;46.222;26.460;2024-03-23T08:30:43;96132.97;;;13.24;42.77
47556;BME280;33291;46.222;26.460;2024-03-23T08:33:09;96126.56;;;13.27;42.71
47556;BME280;33291;46.222;26.460;2024-03-23T08:35:34;96142.94;;;13.37;43.14
47556;BME280;33291;46.222;26.460;2024-03-23T08:38:00;96124.97;;;13.42;41.93
47556;BME280;33291;46.222;26.460;2024-03-23T08:40:26;96120.84;;;13.56;42.25
47556;BME280;33291;46.222;26.460;2024-03-23T08:42:51;96124.91;;;13.67;41.52
47556;BME280;33291;46.222;26.460;2024-03-23T08:45:17;96125.22;;;13.72;41.85
47556;BME280;33291;46.222;26.460;2024-03-23T08:47:43;96109.34;;;13.82;40.97
47556;BME280;33291;46.222;26.460;2024-03-23T08:50:08;96105.69;;;13.91;41.78
47556;BME280;33291;46.222;26.460;2024-03-23T08:52:34;96096.19;;;13.90;41.42
47556;BME280;33291;46.222;26.460;2024-03-23T08:55:00;96102.34;;;14.06;41.58
47556;BME280;33291;46.222;26.460;2024-03-23T08:57:26;96105.75;;;14.14;40.42
47556;BME280;33291;46.222;26.460;2024-03-23T08:59:52;96101.81;;;14.18;40.58
47556;BME280;33291;46.222;26.460;2024-03-23T09:02:17;96103.59;;;14.26;41.46
47556;BME280;33291;46.222;26.460;2024-03-23T09:04:44;96087.47;;;14.37;40.75
47556;BME280;33291;46.222;26.460;2024-03-23T09:07:10;96089.09;;;14.38;40.87
47556;BME280;33291;46.222;26.460;2024-03-23T09:09:38;96094.28;;;14.47;40.99
47556;BME280;33291;46.222;26.460;2024-03-23T09:12:04;96086.53;;;14.62;39.51
47556;BME280;33291;46.222;26.460;2024-03-23T09:14:30;96084.41;;;14.65;39.23
47556;BME280;33291;46.222;26.460;2024-03-23T09:16:56;96084.56;;;14.64;39.70
47556;BME280;33291;46.222;26.460;2024-03-23T09:19:21;96086.69;;;14.60;39.27
47556;BME280;33291;46.222;26.460;2024-03-23T09:21:47;96071.22;;;14.73;39.63
47556;BME280;33291;46.222;26.460;2024-03-23T09:24:13;96079.00;;;14.82;38.65
47556;BME280;33291;46.222;26.460;2024-03-23T09:26:38;96074.47;;;14.75;38.57
47556;BME280;33291;46.222;26.460;2024-03-23T09:29:04;96076.56;;;14.80;39.03
47556;BME280;33291;46.222;26.460;2024-03-23T09:31:29;96064.56;;;14.86;38.57
47556;BME280;33291;46.222;26.460;2024-03-23T09:33:58;96063.94;;;14.84;39.12
47556;BME280;33291;46.222;26.460;2024-03-23T09:36:23;96069.19;;;14.84;38.96
47556;BME280;33291;46.222;26.460;2024-03-23T09:38:49;96063.84;;;14.92;39.30
47556;BME280;33291;46.222;26.460;2024-03-23T09:41:15;96064.44;;;15.02;38.75
47556;BME280;33291;46.222;26.460;2024-03-23T09:43:41;96058.38;;;15.02;38.77
47556;BME280;33291;46.222;26.460;2024-03-23T09:46:07;96050.16;;;15.05;38.96
47556;BME280;33291;46.222;26.460;2024-03-23T09:48:33;96049.63;;;15.09;38.33
47556;BME280;33291;46.222;26.460;2024-03-23T09:50:59;96039.13;;;15.09;38.08
47556;BME280;33291;46.222;26.460;2024-03-23T09:53:24;96039.59;;;15.13;38.03
47556;BME280;33291;46.222;26.460;2024-03-23T09:55:50;96048.91;;;15.16;38.08
47556;BME280;33291;46.222;26.460;2024-03-23T09:58:17;96039.50;;;15.06;37.54
47556;BME280;33291;46.222;26.460;2024-03-23T10:00:44;96033.97;;;15.16;38.09
47556;BME280;33291;46.222;26.460;2024-03-23T10:03:09;96037.00;;;15.43;37.25
47556;BME280;33291;46.222;26.460;2024-03-23T10:05:37;96038.91;;;15.49;36.97
47556;BME280;33291;46.222;26.460;2024-03-23T10:10:41;96031.47;;;15.38;36.45
47556;BME280;33291;46.222;26.460;2024-03-23T10:13:07;96029.94;;;15.43;37.45
47556;BME280;33291;46.222;26.460;2024-03-23T10:15:36;96022.50;;;15.47;37.13
47556;BME280;33291;46.222;26.460;2024-03-23T10:18:17;96026.56;;;15.50;36.63
47556;BME280;33291;46.222;26.460;2024-03-23T10:20:44;96012.09;;;15.54;36.73
47556;BME280;33291;46.222;26.460;2024-03-23T10:23:16;96026.50;;;15.58;37.05
47556;BME280;33291;46.222;26.460;2024-03-23T10:25:42;95999.72;;;15.48;36.19
47556;BME280;33291;46.222;26.460;2024-03-23T10:28:08;96005.31;;;15.44;36.49
47556;BME280;33291;46.222;26.460;2024-03-23T10:30:34;95994.34;;;15.41;36.81
47556;BME280;33291;46.222;26.460;2024-03-23T10:33:10;95994.47;;;15.48;37.39
47556;BME280;33291;46.222;26.460;2024-03-23T10:35:37;95998.06;;;15.61;37.12
47556;BME280;33291;46.222;26.460;2024-03-23T10:38:05;95994.91;;;15.66;36.03
47556;BME280;33291;46.222;26.460;2024-03-23T10:40:34;95987.44;;;15.70;37.06
47556;BME280;33291;46.222;26.460;2024-03-23T10:43:05;95979.34;;;15.79;35.88
47556;BME280;33291;46.222;26.460;2024-03-23T10:45:31;95977.06;;;15.76;36.18
47556;BME280;33291;46.222;26.460;2024-03-23T10:47:57;95971.34;;;15.73;36.24
47556;BME280;33291;46.222;26.460;2024-03-23T10:50:23;95970.47;;;15.80;36.16
47556;BME280;33291;46.222;26.460;2024-03-23T10:52:49;95969.44;;;15.81;36.02
47556;BME280;33291;46.222;26.460;2024-03-23T10:55:19;95967.91;;;15.72;36.80
47556;BME280;33291;46.222;26.460;2024-03-23T10:57:56;95953.50;;;15.68;36.85
47556;BME280;33291;46.222;26.460;2024-03-23T11:00:24;95951.06;;;15.67;37.48
47556;BME280;33291;46.222;26.460;2024-03-23T11:02:50;95948.91;;;15.70;37.77
47556;BME280;33291;46.222;26.460;2024-03-23T11:07:51;95954.34;;;15.69;37.47
47556;BME280;33291;46.222;26.460;2024-03-23T11:10:28;95946.53;;;15.75;37.33
47556;BME280;33291;46.222;26.460;2024-03-23T11:12:58;95945.19;;;15.79;37.81
47556;BME280;33291;46.222;26.460;2024-03-23T11:15:41;95935.50;;;15.80;37.32
47556;BME280;33291;46.222;26.460;2024-03-23T11:18:07;95945.91;;;15.73;36.56
47556;BME280;33291;46.222;26.460;2024-03-23T11:20:37;95931.63;;;15.61;36.18
47556;BME280;33291;46.222;26.460;2024-03-23T11:23:04;95923.84;;;15.53;36.67
47556;BME280;33291;46.222;26.460;2024-03-23T11:25:29;95928.00;;;15.62;36.07
47556;BME280;33291;46.222;26.460;2024-03-23T11:28:11;95917.44;;;15.40;36.03
47556;BME280;33291;46.222;26.460;2024-03-23T11:30:41;95921.28;;;15.23;36.57
47556;BME280;33291;46.222;26.460;2024-03-23T11:33:08;95919.09;;;15.12;37.05
47556;BME280;33291;46.222;26.460;2024-03-23T11:35:37;95907.97;;;15.09;36.78
47556;BME280;33291;46.222;26.460;2024-03-23T11:38:16;95915.84;;;15.24;37.31
47556;BME280;33291;46.222;26.460;2024-03-23T11:40:46;95899.63;;;15.36;36.94
47556;BME280;33291;46.222;26.460;2024-03-23T11:43:14;95887.66;;;15.48;37.13
47556;BME280;33291;46.222;26.460;2024-03-23T11:45:47;95883.50;;;15.54;36.10
47556;BME280;33291;46.222;26.460;2024-03-23T11:48:18;95877.75;;;15.65;36.55
47556;BME280;33291;46.222;26.460;2024-03-23T11:50:46;95882.00;;;15.66;36.56
47556;BME280;33291;46.222;26.460;2024-03-23T11:55:56;95885.03;;;15.48;37.07
47556;BME280;33291;46.222;26.460;2024-03-23T11:58:23;95879.63;;;15.35;37.61
47556;BME280;33291;46.222;26.460;2024-03-23T12:03:26;95883.34;;;15.40;39.69
47556;BME280;33291;46.222;26.460;2024-03-23T12:05:56;95858.41;;;15.51;39.43
47556;BME280;33291;46.222;26.460;2024-03-23T12:08:28;95864.13;;;15.55;39.98
47556;BME280;33291;46.222;26.460;2024-03-23T12:13:34;95855.59;;;15.53;39.11
47556;BME280;33291;46.222;26.460;2024-03-23T12:16:12;95857.25;;;15.54;39.11
47556;BME280;33291;46.222;26.460;2024-03-23T12:18:41;95845.84;;;15.46;39.49
47556;BME280;33291;46.222;26.460;2024-03-23T12:21:07;95845.41;;;15.43;39.90
47556;BME280;33291;46.222;26.460;2024-03-23T12:23:33;95836.28;;;15.39;39.77
47556;BME280;33291;46.222;26.460;2024-03-23T12:25:59;95842.16;;;15.41;39.72
47556;BME280;33291;46.222;26.460;2024-03-23T12:28:25;95835.56;;;15.30;39.26
47556;BME280;33291;46.222;26.460;2024-03-23T12:30:53;95836.59;;;15.29;39.35
47556;BME280;33291;46.222;26.460;2024-03-23T12:33:20;95833.22;;;15.35;38.55
47556;BME280;33291;46.222;26.460;2024-03-23T12:35:45;95835.19;;;15.33;38.20
47556;BME280;33291;46.222;26.460;2024-03-23T12:38:11;95832.94;;;15.30;38.20
47556;BME280;33291;46.222;26.460;2024-03-23T12:40:36;95831.84;;;15.39;38.46
47556;BME280;33291;46.222;26.460;2024-03-23T12:43:02;95824.97;;;15.38;38.36
47556;BME280;33291;46.222;26.460;2024-03-23T12:45:28;95822.97;;;15.40;38.25
47556;BME280;33291;46.222;26.460;2024-03-23T12:47:53;95820.91;;;15.36;38.08
47556;BME280;33291;46.222;26.460;2024-03-23T12:50:20;95805.47;;;15.26;38.46
47556;BME280;33291;46.222;26.460;2024-03-23T12:52:45;95809.78;;;15.34;38.80
47556;BME280;33291;46.222;26.460;2024-03-23T12:55:11;95799.13;;;15.35;39.21
47556;BME280;33291;46.222;26.460;2024-03-23T12:57:37;95798.94;;;15.37;39.18
47556;BME280;33291;46.222;26.460;2024-03-23T13:00:03;95795.75;;;15.41;38.89
47556;BME280;33291;46.222;26.460;2024-03-23T13:02:30;95782.81;;;15.40;39.43
47556;BME280;33291;46.222;26.460;2024-03-23T13:04:55;95795.19;;;15.46;39.59
47556;BME280;33291;46.222;26.460;2024-03-23T13:07:22;95791.00;;;15.52;39.14
47556;BME280;33291;46.222;26.460;2024-03-23T13:09:52;95782.13;;;15.53;37.92
47556;BME280;33291;46.222;26.460;2024-03-23T13:12:19;95754.69;;;15.55;37.09
47556;BME280;33291;46.222;26.460;2024-03-23T13:14:46;95768.97;;;15.74;37.86
47556;BME280;33291;46.222;26.460;2024-03-23T13:17:12;95765.00;;;15.78;37.30
47556;BME280;33291;46.222;26.460;2024-03-23T13:19:37;95753.88;;;15.76;36.49
47556;BME280;33291;46.222;26.460;2024-03-23T13:22:04;95764.88;;;15.87;36.72
47556;BME280;33291;46.222;26.460;2024-03-23T13:24:30;95756.63;;;15.90;36.44
47556;BME280;33291;46.222;26.460;2024-03-23T13:26:56;95748.94;;;15.88;36.26
47556;BME280;33291;46.222;26.460;2024-03-23T13:29:23;95756.72;;;16.03;36.13
47556;BME280;33291;46.222;26.460;2024-03-23T13:31:50;95745.06;;;16.12;35.78
47556;BME280;33291;46.222;26.460;2024-03-23T13:34:16;95749.19;;;16.22;35.79
47556;BME280;33291;46.222;26.460;2024-03-23T13:36:42;95743.91;;;16.22;35.02
47556;BME280;33291;46.222;26.460;2024-03-23T13:39:09;95747.78;;;16.26;35.20
47556;BME280;33291;46.222;26.460;2024-03-23T13:41:38;95746.56;;;16.22;35.24
47556;BME280;33291;46.222;26.460;2024-03-23T13:44:05;95745.69;;;16.14;35.18
47556;BME280;33291;46.222;26.460;2024-03-23T13:46:32;95745.44;;;16.09;34.95
47556;BME280;33291;46.222;26.460;2024-03-23T13:48:58;95736.16;;;16.13;35.35
47556;BME280;33291;46.222;26.460;2024-03-23T13:51:24;95735.19;;;16.14;35.08
47556;BME280;33291;46.222;26.460;2024-03-23T13:53:56;95734.13;;;16.09;34.79
47556;BME280;33291;46.222;26.460;2024-03-23T13:56:24;95724.19;;;16.04;35.35
47556;BME280;33291;46.222;26.460;2024-03-23T13:58:50;95723.19;;;16.05;35.74